Portada
METAR-TAF:

METAR-TAF

Aeroports :

Agen, França

latitud: 44-11N, longitud: 000-36E, altitud: 61 m

Observació

L'informe es va fer fa 27 minuts, a les 20:30 UTC
Vent 8 kt del Sud-Oest, variant entre Sud/Sud-Oest i Oest
Temperatura 6°C
Humitat 87%
Pressió 1007 hPa
Visibilitat 10 km o més
Cel ennuvolat a una alçada de 3600 ft
Cel ennuvolat a una alçada de 4600 ft
Cel ennuvolat a una alçada de 6200 ft
plugim

METAR: LFBA 222030Z AUTO 23008KT 200V260 9999 -DZ BKN036 BKN046 BKN062 06/04 Q1007 TEMPO 4000 SHRA BKN020TCU

Hora: 21:57 (20:57 UTC)

Pronòstic

L'informe es va fer fa 3 hores i 57 minuts, a les 17:00 UTC
Pronòstic vàlid del 22 a les 18 UTC al 23 a les 03 UTC
Vent 10 kt del Oest
Visibilitat 10 km o més
Cel ennuvolat a una alçada de 1800 ft
Probabilitat 40% :
Temporalment
l' 22 a les 18 UTC al 23 a les 03 UTC
Visibilitat: 4000 m
Cel ennuvolat a una alçada de 2000 ft, Cumulus congestus.
xàfecs de pluja

TAF: LFBA 221700Z 2218/2303 28010KT 9999 BKN018 PROB40 TEMPO 2218/2303 4000 SHRA BKN020TCU

Observacions i pronòstics meteorològics de més de 4000 aeroports (METAR i TAF).

Les estacions disponibles són els punts grocs i vermells al mapa.

Posi el ratolí al punt desitjat per veure el nom de l'estació.

Feu clic per veure les observacions i els pronòstics meteorològics.

Per canviar el mapa: feu clic els botons verds amb una creu de color negre per apropar; al botó verd amb un guió per allunyar la imatge; o en les fletxes verdes per a mapes adjacents.


METAR-TAF: